Time;durP1;ratioP1;P1;durP2;ratioP2;P2;SDS_P1;SDS_P2;PMS_P1;PMS_P2;Temp;Humidity;BMP_temperature;BMP_pressure;BME280_temperature;BME280_humidity;BME280_pressure;Samples;Min_cycle;Max_cycle;Signal;HPM_P1;HPM_P2
2021/10/18 00:00:09;;;;;;;45.85;21.67;;;;;;;6.02;67.40;99096.78;5082073;28;20031;-78
2021/10/18 00:02:34;;;;;;;41.80;20.65;;;;;;;6.03;67.27;99080.22;5081251;28;20054;-77
2021/10/18 00:05:00;;;;;;;41.08;21.08;;;;;;;6.04;67.59;99086.47;5083920;28;20020;-77
2021/10/18 00:07:25;;;;;;;46.55;19.77;;;;;;;6.05;67.36;99083.50;5087641;28;20071;-77
2021/10/18 00:09:50;;;;;;;41.67;19.38;;;;;;;6.06;67.29;99084.31;5084449;28;20035;-77
2021/10/18 00:12:16;;;;;;;39.70;18.73;;;;;;;6.07;67.26;99094.97;5080530;28;20023;-77
2021/10/18 00:14:41;;;;;;;38.63;19.13;;;;;;;6.08;67.58;99084.91;5095230;28;20816;-78
2021/10/18 00:17:07;;;;;;;38.63;18.38;;;;;;;6.08;67.28;99085.75;5086489;28;20024;-77
2021/10/18 00:19:32;;;;;;;39.25;19.45;;;;;;;6.08;67.58;99083.00;5089653;28;20488;-77
2021/10/18 00:21:58;;;;;;;37.22;18.08;;;;;;;6.08;67.47;99083.00;5090719;28;20015;-78
2021/10/18 00:24:23;;;;;;;38.70;19.05;;;;;;;6.10;67.51;99083.59;5090230;28;20449;-77
2021/10/18 00:26:48;;;;;;;32.72;17.98;;;;;;;6.10;67.32;99075.41;5088126;28;20090;-78
2021/10/18 00:29:14;;;;;;;36.63;17.20;;;;;;;6.13;67.11;99074.06;5060293;28;20029;-77
2021/10/18 00:31:39;;;;;;;40.33;19.25;;;;;;;6.14;67.29;99085.78;5082229;28;20387;-78
2021/10/18 00:34:05;;;;;;;38.08;19.17;;;;;;;6.14;67.25;99077.59;5087777;28;20793;-78
2021/10/18 00:36:30;;;;;;;46.55;22.75;;;;;;;6.16;67.30;99080.91;5089342;28;20484;-78
2021/10/18 00:38:56;;;;;;;47.38;22.45;;;;;;;6.17;67.02;99072.50;5085462;28;20115;-78
2021/10/18 00:41:21;;;;;;;50.03;25.10;;;;;;;6.23;67.46;99068.78;5085461;28;21492;-79
2021/10/18 00:43:50;;;;;;;51.80;25.77;;;;;;;6.30;67.43;99071.31;5082102;28;20071;-77
2021/10/18 00:46:23;;;;;;;49.97;24.48;;;;;;;6.32;67.26;99062.84;5083795;28;20032;-78
2021/10/18 00:48:50;;;;;;;48.70;24.38;;;;;;;6.32;67.68;99068.31;5061169;28;20040;-78
2021/10/18 00:51:18;;;;;;;48.03;23.27;;;;;;;6.32;67.52;99069.16;5081713;28;20807;-77
2021/10/18 00:53:47;;;;;;;46.72;21.50;;;;;;;6.31;67.55;99070.22;5076823;28;20107;-78
2021/10/18 00:56:15;;;;;;;47.08;23.58;;;;;;;6.32;67.31;99074.59;5090952;28;20042;-78
2021/10/18 00:58:42;;;;;;;51.28;23.25;;;;;;;6.36;67.41;99070.28;5092583;28;20564;-78
2021/10/18 01:01:08;;;;;;;43.72;22.40;;;;;;;6.39;67.76;99077.13;5086290;28;20020;-78
2021/10/18 01:03:35;;;;;;;44.55;22.27;;;;;;;6.44;67.63;99065.47;5086413;28;20012;-79
2021/10/18 01:06:01;;;;;;;50.72;24.02;;;;;;;6.47;67.49;99073.16;5099283;28;20036;-78
2021/10/18 01:08:27;;;;;;;43.50;22.98;;;;;;;6.50;67.56;99059.03;5088493;28;20040;-78
2021/10/18 01:10:52;;;;;;;44.38;21.15;;;;;;;6.54;67.35;99068.31;5083812;28;20024;-77
2021/10/18 01:13:18;;;;;;;48.00;21.23;;;;;;;6.57;67.11;99067.00;5066622;28;20032;-77
2021/10/18 01:15:43;;;;;;;45.78;21.13;;;;;;;6.58;67.77;99066.72;5072778;28;20066;-77
2021/10/18 01:18:09;;;;;;;38.60;20.05;;;;;;;6.60;67.86;99066.47;5083725;28;20045;-78
2021/10/18 01:20:36;;;;;;;43.67;19.58;;;;;;;6.62;67.52;99064.31;5086978;28;20111;-78
2021/10/18 01:23:03;;;;;;;40.50;18.77;;;;;;;6.65;67.36;99063.81;5088601;28;20016;-78
2021/10/18 01:25:29;;;;;;;39.60;18.35;;;;;;;6.67;67.54;99067.13;5093435;28;20073;-77
2021/10/18 01:27:56;;;;;;;38.33;19.80;;;;;;;6.67;67.36;99062.47;5091989;28;20031;-79
2021/10/18 01:30:22;;;;;;;41.55;20.35;;;;;;;6.68;67.19;99066.03;5088112;28;20074;-77
2021/10/18 01:32:47;;;;;;;50.65;22.60;;;;;;;6.67;67.43;99061.66;5097793;28;20059;-78
2021/10/18 01:35:13;;;;;;;52.05;24.08;;;;;;;6.67;67.54;99065.19;5093119;28;20024;-78
2021/10/18 01:37:39;;;;;;;61.33;28.55;;;;;;;6.68;67.33;99072.28;5098203;28;20029;-78
2021/10/18 01:40:07;;;;;;;68.88;31.23;;;;;;;6.68;67.54;99066.84;5092089;28;20527;-78
2021/10/18 01:42:32;;;;;;;84.97;40.40;;;;;;;6.69;67.66;99065.75;5085605;28;20024;-78
2021/10/18 01:44:58;;;;;;;81.55;40.35;;;;;;;6.70;67.58;99069.34;5096024;28;20103;-78
2021/10/18 01:47:26;;;;;;;69.05;30.95;;;;;;;6.71;67.27;99073.69;5094308;28;20033;-77
2021/10/18 01:49:52;;;;;;;61.65;26.42;;;;;;;6.68;67.25;99069.56;5091957;28;20032;-78
2021/10/18 01:52:17;;;;;;;51.35;22.65;;;;;;;6.67;67.21;99070.66;5090551;28;20035;-77
2021/10/18 01:54:42;;;;;;;44.33;21.35;;;;;;;6.66;67.42;99079.09;5094332;28;20024;-78
2021/10/18 01:57:08;;;;;;;42.53;20.45;;;;;;;6.68;67.56;99074.22;5095493;28;20464;-78
2021/10/18 01:59:33;;;;;;;42.78;19.52;;;;;;;6.69;67.36;99073.94;5095374;28;20052;-78
2021/10/18 02:01:59;;;;;;;39.33;19.13;;;;;;;6.72;67.54;99080.81;5091395;28;20054;-78
2021/10/18 02:04:24;;;;;;;32.33;17.17;;;;;;;6.74;67.48;99064.97;5095138;28;20035;-78
2021/10/18 02:06:50;;;;;;;30.92;15.32;;;;;;;6.78;67.40;99060.66;5092397;28;20484;-78
2021/10/18 02:09:15;;;;;;;32.10;15.35;;;;;;;6.82;67.36;99061.81;5094233;28;20365;-77
2021/10/18 02:11:40;;;;;;;29.42;15.43;;;;;;;6.85;67.51;99068.66;5092707;28;20110;-78
2021/10/18 02:14:06;;;;;;;30.00;14.63;;;;;;;6.87;67.06;99066.50;5093414;28;20042;-78
2021/10/18 02:16:31;;;;;;;33.35;14.77;;;;;;;6.88;66.82;99076.34;5088081;28;20032;-78
2021/10/18 02:18:57;;;;;;;28.50;14.13;;;;;;;6.88;66.65;99070.03;5097118;28;20043;-77
2021/10/18 02:21:22;;;;;;;32.70;15.55;;;;;;;6.88;66.78;99070.88;5089944;28;20077;-79
2021/10/18 02:23:47;;;;;;;32.78;15.68;;;;;;;6.89;67.00;99071.69;5090965;28;20012;-78
2021/10/18 02:26:13;;;;;;;31.83;14.57;;;;;;;6.89;66.61;99075.25;5075172;28;20500;-78
2021/10/18 02:28:38;;;;;;;29.80;14.38;;;;;;;6.89;66.66;99075.25;5084902;28;20029;-77
2021/10/18 02:31:04;;;;;;;24.55;12.50;;;;;;;6.90;66.63;99071.44;5090328;28;20020;-78
2021/10/18 02:33:29;;;;;;;29.10;13.80;;;;;;;6.91;66.53;99075.00;5083708;28;20089;-78
2021/10/18 02:35:54;;;;;;;29.25;14.18;;;;;;;6.90;66.77;99070.63;5086064;28;20059;-78
2021/10/18 02:38:20;;;;;;;27.88;13.95;;;;;;;6.91;66.45;99073.09;5082198;28;20028;-78
2021/10/18 02:40:45;;;;;;;29.52;14.93;;;;;;;6.89;66.41;99067.06;5089178;28;20047;-79
2021/10/18 02:43:11;;;;;;;26.38;13.88;;;;;;;6.88;66.44;99070.88;5082185;28;20031;-80
2021/10/18 02:45:36;;;;;;;32.50;15.65;;;;;;;6.88;66.50;99075.50;5071388;28;20039;-79
2021/10/18 02:48:02;;;;;;;32.67;16.20;;;;;;;6.88;66.50;99067.31;5081787;28;20036;-79
2021/10/18 02:50:27;;;;;;;31.63;16.25;;;;;;;6.84;66.75;99073.28;5087040;28;20027;-79
2021/10/18 02:52:53;;;;;;;29.65;14.65;;;;;;;6.86;66.46;99070.31;5081864;28;20434;-79
2021/10/18 02:55:18;;;;;;;30.48;15.02;;;;;;;6.87;66.43;99071.13;5063370;28;20112;-79
2021/10/18 02:57:44;;;;;;;30.73;14.73;;;;;;;6.89;67.04;99074.41;5086077;28;20039;-79
2021/10/18 03:00:09;;;;;;;27.73;13.98;;;;;;;6.90;66.34;99076.06;5080390;28;20038;-79
2021/10/18 03:02:35;;;;;;;29.20;13.68;;;;;;;6.92;66.43;99077.47;5082994;28;20035;-79
2021/10/18 03:05:00;;;;;;;24.83;12.15;;;;;;;6.93;65.98;99070.09;5090862;28;20020;-80
2021/10/18 03:07:25;;;;;;;25.58;12.20;;;;;;;6.94;66.33;99064.38;5090716;28;20460;-80
2021/10/18 03:09:51;;;;;;;23.10;12.50;;;;;;;6.97;66.20;99065.78;5093888;28;20036;-79
2021/10/18 03:12:16;;;;;;;32.55;14.77;;;;;;;6.98;66.16;99073.69;5087497;28;20038;-79
2021/10/18 03:14:42;;;;;;;27.55;13.77;;;;;;;6.97;66.06;99072.03;5094493;28;20056;-78
2021/10/18 03:17:07;;;;;;;29.98;14.38;;;;;;;6.98;66.01;99086.53;5089418;28;20028;-79
2021/10/18 03:19:32;;;;;;;27.10;12.75;;;;;;;6.99;66.13;99080.00;5089009;28;20485;-80
2021/10/18 03:21:58;;;;;;;24.20;12.85;;;;;;;7.02;66.03;99076.75;5090422;28;20024;-80
2021/10/18 03:24:23;;;;;;;26.92;13.73;;;;;;;7.06;65.92;99080.59;5087847;28;20036;-81
2021/10/18 03:26:49;;;;;;;29.85;14.90;;;;;;;7.09;66.32;99085.56;5105883;28;20071;-80
2021/10/18 03:29:14;;;;;;;23.65;13.23;;;;;;;7.13;66.04;99091.31;5095638;28;20035;-80
2021/10/18 03:31:40;;;;;;;27.25;14.20;;;;;;;7.12;65.98;99092.38;5089914;28;20039;-80
2021/10/18 03:34:05;;;;;;;25.17;13.15;;;;;;;7.18;66.03;99096.81;5093513;28;20027;-80
2021/10/18 03:36:31;;;;;;;25.90;13.43;;;;;;;7.20;65.78;99102.84;5084743;28;20518;-80
2021/10/18 03:38:57;;;;;;;26.13;14.10;;;;;;;7.17;66.11;99105.25;5091823;28;20027;-78
2021/10/18 03:41:22;;;;;;;23.17;13.63;;;;;;;7.13;65.79;99103.03;5091173;28;20027;-79
2021/10/18 03:43:48;;;;;;;27.25;11.98;;;;;;;7.11;66.27;99101.66;5099532;28;20419;-79
2021/10/18 03:46:13;;;;;;;29.10;14.85;;;;;;;7.09;66.01;99098.34;5085786;28;20031;-79
2021/10/18 03:48:38;;;;;;;25.73;13.45;;;;;;;7.07;65.93;99108.69;5071152;28;20472;-78
2021/10/18 03:51:04;;;;;;;24.35;13.15;;;;;;;7.04;65.88;99104.59;5106714;28;20080;-79
2021/10/18 03:53:29;;;;;;;24.20;13.40;;;;;;;7.01;66.23;99110.56;5086356;28;20028;-79
2021/10/18 03:55:55;;;;;;;23.83;12.57;;;;;;;7.00;65.76;99117.09;5091421;28;20055;-80
2021/10/18 03:58:20;;;;;;;24.08;12.55;;;;;;;7.02;66.38;99114.09;5095452;28;20364;-79
2021/10/18 04:00:45;;;;;;;23.08;12.73;;;;;;;7.05;66.40;99116.31;5089511;28;20029;-79
2021/10/18 04:03:11;;;;;;;19.42;11.95;;;;;;;7.04;66.36;99122.84;5073104;28;20020;-78
2021/10/18 04:05:36;;;;;;;20.38;11.25;;;;;;;7.03;66.35;99123.91;5098156;28;20027;-79
2021/10/18 04:08:02;;;;;;;22.45;12.30;;;;;;;7.01;66.58;99121.47;5089888;28;20028;-81
2021/10/18 04:10:27;;;;;;;16.95;10.00;;;;;;;7.05;66.67;99132.66;5086620;28;20551;-80
2021/10/18 04:12:52;;;;;;;19.98;10.43;;;;;;;7.01;67.12;99126.91;5072781;28;20130;-80
2021/10/18 04:15:19;;;;;;;18.92;11.15;;;;;;;6.97;67.38;99134.78;5100186;28;20047;-79
2021/10/18 04:17:45;;;;;;;17.65;10.75;;;;;;;6.92;67.56;99132.00;5088422;28;20028;-79
2021/10/18 04:20:11;;;;;;;22.75;11.77;;;;;;;6.82;68.38;99143.59;5091400;28;20028;-79
2021/10/18 04:22:36;;;;;;;22.25;12.32;;;;;;;6.72;68.22;99129.88;5085646;28;20024;-79
2021/10/18 04:25:03;;;;;;;21.73;12.20;;;;;;;6.68;69.26;99137.72;5085982;28;20399;-80
2021/10/18 04:27:28;;;;;;;26.48;14.18;;;;;;;6.61;69.33;99141.72;5088433;28;20036;-80
2021/10/18 04:29:53;;;;;;;23.27;13.32;;;;;;;6.54;68.98;99144.63;5068988;28;20487;-80
2021/10/18 04:32:19;;;;;;;24.42;12.90;;;;;;;6.50;69.96;99143.50;5089673;28;20024;-80
2021/10/18 04:34:45;;;;;;;23.33;13.57;;;;;;;6.44;70.13;99153.47;5086617;28;20109;-80
2021/10/18 04:37:10;;;;;;;27.75;15.40;;;;;;;6.39;70.38;99146.06;5088959;28;20064;-80
2021/10/18 04:39:36;;;;;;;21.52;13.70;;;;;;;6.37;70.71;99144.66;5089897;28;20107;-80
2021/10/18 04:42:02;;;;;;;24.15;12.75;;;;;;;6.33;71.19;99151.69;5070845;28;20020;-81
2021/10/18 04:44:27;;;;;;;21.10;11.27;;;;;;;6.31;71.49;99148.41;5088622;28;20024;-80
2021/10/18 04:46:53;;;;;;;23.77;14.18;;;;;;;6.24;72.17;99143.97;5078246;28;20095;-80
2021/10/18 04:49:18;;;;;;;23.52;14.15;;;;;;;6.22;72.37;99157.00;5106514;28;20088;-80
2021/10/18 04:51:43;;;;;;;23.88;12.85;;;;;;;6.22;72.37;99154.28;5110466;28;20107;-81
2021/10/18 04:54:09;;;;;;;18.75;11.85;;;;;;;6.23;71.96;99166.00;5081757;28;20107;-80
2021/10/18 04:56:34;;;;;;;19.88;12.48;;;;;;;6.22;72.13;99162.47;5083874;28;20039;-81
2021/10/18 04:59:00;;;;;;;20.30;12.50;;;;;;;6.24;72.34;99168.47;5092838;28;20039;-81
2021/10/18 05:01:25;;;;;;;18.73;12.10;;;;;;;6.25;72.81;99169.28;5102271;28;20072;-80
2021/10/18 05:03:50;;;;;;;21.73;14.20;;;;;;;6.26;73.21;99170.94;5096515;28;20420;-80
2021/10/18 05:06:16;;;;;;;23.48;13.70;;;;;;;6.29;73.52;99177.81;5102921;28;20035;-80
2021/10/18 05:08:41;;;;;;;22.25;13.45;;;;;;;6.34;73.44;99175.13;5102754;28;20106;-80
2021/10/18 05:11:07;;;;;;;20.75;12.40;;;;;;;6.34;73.89;99181.41;5101810;28;20123;-81
2021/10/18 05:13:32;;;;;;;20.35;12.70;;;;;;;6.38;74.20;99168.09;5093043;28;20028;-80
2021/10/18 05:15:57;;;;;;;18.63;11.23;;;;;;;6.42;74.15;99184.78;5091945;28;20396;-80
2021/10/18 05:18:23;;;;;;;23.65;13.35;;;;;;;6.44;73.92;99185.38;5089934;28;20157;-80
2021/10/18 05:20:50;;;;;;;23.08;12.73;;;;;;;6.48;75.01;99183.81;5094131;28;20035;-79
2021/10/18 05:23:16;;;;;;;22.60;13.52;;;;;;;6.52;74.72;99182.22;5092649;28;20031;-80
2021/10/18 05:25:42;;;;;;;18.63;10.77;;;;;;;6.58;74.59;99191.28;5088991;28;20665;-80
2021/10/18 05:28:09;;;;;;;22.17;13.18;;;;;;;6.60;74.74;99191.84;5093031;28;20031;-79
2021/10/18 05:30:35;;;;;;;20.42;12.63;;;;;;;6.62;75.08;99195.97;5074081;28;20035;-79
2021/10/18 05:33:01;;;;;;;16.85;10.75;;;;;;;6.64;75.32;99199.25;5093181;28;20032;-79
2021/10/18 05:35:27;;;;;;;16.17;9.10;;;;;;;6.68;75.60;99207.78;5099370;28;20081;-79
2021/10/18 05:37:53;;;;;;;18.13;11.45;;;;;;;6.68;75.30;99203.13;5089013;28;20032;-80
2021/10/18 05:40:22;;;;;;;20.40;12.05;;;;;;;6.68;75.66;99202.31;5093746;28;20056;-80
2021/10/18 05:42:48;;;;;;;16.27;9.68;;;;;;;6.68;76.10;99211.31;5092140;28;20045;-80
2021/10/18 05:45:13;;;;;;;17.77;10.82;;;;;;;6.70;76.41;99217.34;5090765;28;20040;-79
2021/10/18 05:48:00;;;;;;;18.50;11.60;;;;;;;6.74;75.67;99223.09;5090735;28;20036;-80
2021/10/18 05:50:29;;;;;;;15.10;9.90;;;;;;;6.80;76.49;99221.28;5101411;28;20506;-82
2021/10/18 05:52:55;;;;;;;18.55;11.35;;;;;;;6.84;76.22;99231.44;5088633;28;20044;-78
2021/10/18 05:55:23;;;;;;;19.75;10.93;;;;;;;6.84;76.10;99219.72;5091994;28;20032;-82
2021/10/18 05:57:54;;;;;;;19.20;11.60;;;;;;;6.83;75.65;99221.59;5090916;28;20032;-83
2021/10/18 06:00:20;;;;;;;20.27;12.85;;;;;;;6.85;76.07;99232.28;5090178;28;20032;-80
2021/10/18 06:02:47;;;;;;;15.43;9.60;;;;;;;6.87;76.19;99232.00;5071654;28;20028;-80
2021/10/18 06:05:12;;;;;;;13.55;9.30;;;;;;;6.87;76.75;99234.72;5083568;28;20411;-82
2021/10/18 06:07:38;;;;;;;16.58;10.63;;;;;;;6.88;76.86;99233.66;5088310;28;20040;-80
2021/10/18 06:10:05;;;;;;;15.98;9.15;;;;;;;6.91;77.05;99244.06;5086102;28;20024;-82
2021/10/18 06:12:30;;;;;;;12.30;8.07;;;;;;;6.93;76.89;99247.34;5087727;28;20037;-82
2021/10/18 06:14:56;;;;;;;14.95;10.80;;;;;;;6.93;78.25;99250.91;5090109;28;20547;-81
2021/10/18 06:17:21;;;;;;;33.28;13.88;;;;;;;6.96;77.34;99244.13;5086408;28;20464;-80
2021/10/18 06:19:47;;;;;;;17.63;9.68;;;;;;;7.01;76.70;99255.09;5083499;28;20027;-80
2021/10/18 06:22:12;;;;;;;16.38;10.10;;;;;;;7.07;77.21;99255.97;5097678;28;20103;-82
2021/10/18 06:24:37;;;;;;;22.88;12.15;;;;;;;7.10;77.19;99248.13;5091862;28;20069;-82
2021/10/18 06:27:03;;;;;;;14.00;9.20;;;;;;;7.18;77.31;99259.66;5084436;28;20511;-82
2021/10/18 06:29:29;;;;;;;17.40;11.30;;;;;;;7.20;76.65;99257.50;5087289;28;20092;-82
2021/10/18 06:31:54;;;;;;;17.23;11.75;;;;;;;7.24;77.92;99258.66;5091396;28;20036;-82
2021/10/18 06:34:20;;;;;;;22.88;13.50;;;;;;;7.27;77.27;99256.25;5088737;28;20032;-84
2021/10/18 06:36:45;;;;;;;16.20;10.30;;;;;;;7.36;77.86;99261.22;5092257;28;20032;-81
2021/10/18 06:39:11;;;;;;;16.60;10.63;;;;;;;7.37;77.11;99269.19;5090247;28;20122;-81
2021/10/18 06:41:36;;;;;;;16.63;10.65;;;;;;;7.35;77.20;99274.06;5105436;28;20024;-81
2021/10/18 06:44:01;;;;;;;18.48;12.43;;;;;;;7.36;76.72;99281.19;5092628;28;20476;-83
2021/10/18 06:46:27;;;;;;;16.13;9.07;;;;;;;7.34;77.14;99277.88;5089963;28;20027;-81
2021/10/18 06:48:52;;;;;;;14.05;9.98;;;;;;;7.31;77.01;99275.66;5088333;28;20032;-81
2021/10/18 06:51:18;;;;;;;17.58;10.50;;;;;;;7.37;77.58;99285.56;5091571;28;20051;-81
2021/10/18 06:53:43;;;;;;;19.63;11.90;;;;;;;7.42;77.53;99282.06;5085998;28;20024;-81
2021/10/18 06:56:09;;;;;;;14.93;9.20;;;;;;;7.42;77.15;99290.25;5097523;28;20556;-82
2021/10/18 06:58:34;;;;;;;14.93;10.07;;;;;;;7.42;77.19;99292.97;5092275;28;20430;-82
2021/10/18 07:01:00;;;;;;;15.90;8.88;;;;;;;7.40;77.61;99290.50;5093362;28;20092;-80
2021/10/18 07:03:26;;;;;;;14.77;9.43;;;;;;;7.42;77.41;99293.81;5099882;28;20114;-78
2021/10/18 07:05:52;;;;;;;12.38;8.63;;;;;;;7.46;77.11;99305.03;5090311;28;20119;-78
2021/10/18 07:08:17;;;;;;;16.63;11.07;;;;;;;7.48;77.48;99304.78;5094238;28;20452;-79
2021/10/18 07:10:43;;;;;;;18.70;10.88;;;;;;;7.50;77.26;99321.75;5089727;28;20515;-79
2021/10/18 07:13:11;;;;;;;18.25;11.73;;;;;;;7.50;77.64;99308.09;5102998;28;20391;-79
2021/10/18 07:15:37;;;;;;;20.60;13.15;;;;;;;7.54;77.79;99322.88;5111683;28;20026;-80
2021/10/18 07:18:03;;;;;;;22.30;14.73;;;;;;;7.56;77.46;99317.97;5111486;28;20024;-79
2021/10/18 07:20:29;;;;;;;20.98;14.68;;;;;;;7.58;77.69;99324.84;5111746;28;20024;-79
2021/10/18 07:22:58;;;;;;;19.33;12.30;;;;;;;7.61;77.13;99328.94;5101874;28;20700;-79
2021/10/18 07:25:24;;;;;;;22.83;14.43;;;;;;;7.59;77.25;99326.50;5089976;28;20055;-80
2021/10/18 07:27:49;;;;;;;22.73;15.02;;;;;;;7.59;77.86;99336.56;5111014;28;20051;-79
2021/10/18 07:30:15;;;;;;;20.42;14.15;;;;;;;7.58;77.24;99330.28;5107015;28;20039;-78
2021/10/18 07:32:43;;;;;;;23.25;14.30;;;;;;;7.60;77.25;99332.75;5088938;28;20038;-79
2021/10/18 07:35:09;;;;;;;21.27;13.85;;;;;;;7.61;77.05;99337.13;5093677;28;20048;-79
2021/10/18 07:37:35;;;;;;;23.05;14.60;;;;;;;7.62;77.18;99336.06;5097861;28;20046;-79
2021/10/18 07:40:00;;;;;;;23.33;13.20;;;;;;;7.66;77.11;99333.66;5104250;28;20118;-78
2021/10/18 07:42:26;;;;;;;25.38;14.90;;;;;;;7.66;77.04;99334.47;5087180;28;20598;-80
2021/10/18 07:44:53;;;;;;;27.20;14.93;;;;;;;7.71;76.87;99328.25;5100759;28;20028;-79
2021/10/18 07:47:20;;;;;;;26.30;15.40;;;;;;;7.79;77.59;99326.97;5094696;28;20416;-78
2021/10/18 07:49:45;;;;;;;28.90;15.20;;;;;;;7.83;76.90;99328.09;5100036;28;20036;-79
2021/10/18 07:52:14;;;;;;;28.48;16.17;;;;;;;7.88;77.50;99339.09;5088491;28;20139;-79
2021/10/18 07:54:41;;;;;;;28.15;16.83;;;;;;;7.90;77.17;99335.00;5090371;28;20024;-79
2021/10/18 07:57:06;;;;;;;27.65;15.80;;;;;;;7.91;77.57;99338.59;5082031;28;20456;-80
2021/10/18 07:59:31;;;;;;;24.58;13.07;;;;;;;7.94;77.17;99332.59;5086439;28;20050;-79
2021/10/18 08:01:58;;;;;;;31.02;16.75;;;;;;;7.92;77.46;99345.69;5084148;28;20073;-78
2021/10/18 08:04:23;;;;;;;26.40;15.80;;;;;;;7.93;76.95;99341.03;5090753;28;20027;-79
2021/10/18 08:06:48;;;;;;;25.15;15.55;;;;;;;7.96;76.70;99343.25;5074779;28;20102;-80
2021/10/18 08:09:14;;;;;;;25.42;15.90;;;;;;;8.00;76.50;99338.94;5088242;28;20365;-72
2021/10/18 08:11:39;;;;;;;30.48;16.25;;;;;;;8.00;76.73;99350.69;5081649;28;20052;-73
2021/10/18 08:14:05;;;;;;;28.88;15.85;;;;;;;7.98;77.16;99344.66;5083433;28;20031;-73
2021/10/18 08:16:31;;;;;;;32.55;18.40;;;;;;;7.96;77.21;99348.72;5096619;28;20063;-74
2021/10/18 08:18:56;;;;;;;35.45;17.27;;;;;;;7.94;77.12;99356.34;5081625;28;20039;-71
2021/10/18 08:21:22;;;;;;;34.78;17.52;;;;;;;7.92;77.11;99348.44;5082039;28;20499;-70
2021/10/18 08:23:48;;;;;;;34.20;19.77;;;;;;;7.87;76.75;99359.28;5085069;28;20583;-69
2021/10/18 08:26:13;;;;;;;30.85;16.45;;;;;;;7.87;77.67;99357.38;5091377;28;20127;-70
2021/10/18 08:28:39;;;;;;;27.98;15.25;;;;;;;7.92;77.48;99367.53;5071925;28;20043;-70
2021/10/18 08:31:04;;;;;;;30.55;16.85;;;;;;;7.93;77.64;99357.44;5090780;28;20426;-71
2021/10/18 08:33:30;;;;;;;30.83;16.23;;;;;;;7.94;78.01;99359.09;5095141;28;20495;-71
2021/10/18 08:35:55;;;;;;;30.00;15.63;;;;;;;7.93;77.26;99361.00;5090343;28;20036;-70
2021/10/18 08:41:32;;;;;;;29.15;17.08;;;;;;;7.99;77.44;99364.59;5092867;28;20078;-71
2021/10/18 08:46:24;;;;;;;32.80;18.33;;;;;;;8.00;77.88;99366.25;5093294;28;20110;-71
2021/10/18 08:48:52;;;;;;;56.92;26.23;;;;;;;8.05;77.62;99361.66;5096679;28;20022;-70
2021/10/18 08:51:18;;;;;;;61.33;26.70;;;;;;;8.07;77.26;99363.31;5092465;28;20020;-70
2021/10/18 08:53:44;;;;;;;69.15;31.10;;;;;;;8.09;77.69;99356.53;5099464;28;20081;-68
2021/10/18 08:56:09;;;;;;;49.15;24.67;;;;;;;8.17;77.80;99360.69;5101222;28;20033;-68
2021/10/18 08:58:35;;;;;;;25.90;16.50;;;;;;;8.21;77.89;99367.28;5093183;28;20028;-69
2021/10/18 09:01:00;;;;;;;27.77;15.82;;;;;;;8.22;77.50;99368.94;5085423;28;20873;-68
2021/10/18 09:03:29;;;;;;;31.70;18.48;;;;;;;8.30;78.97;99365.75;5074305;28;20183;-70
2021/10/18 09:06:22;;;;;;;27.83;17.13;;;;;;;8.35;77.92;99363.03;5099761;28;20093;-69
2021/10/18 09:08:52;;;;;;;32.53;17.27;;;;;;;8.47;77.77;99367.53;5097828;28;20028;-70
2021/10/18 09:11:23;;;;;;;26.60;16.55;;;;;;;8.58;77.84;99365.72;5092323;28;20102;-70
2021/10/18 09:13:51;;;;;;;26.98;15.90;;;;;;;8.63;77.80;99371.25;5090913;28;20039;-70
2021/10/18 09:16:32;;;;;;;30.33;17.92;;;;;;;8.61;77.67;99368.78;5091268;28;20029;-70
2021/10/18 09:19:05;;;;;;;23.92;15.15;;;;;;;8.70;77.30;99371.84;5087948;28;20035;-69
2021/10/18 09:21:39;;;;;;;28.15;15.98;;;;;;;8.81;77.45;99366.47;5085318;28;20034;-69
2021/10/18 09:24:06;;;;;;;90.78;36.50;;;;;;;8.88;77.19;99370.63;5071402;28;20024;-68
2021/10/18 09:26:32;;;;;;;33.20;17.10;;;;;;;8.92;77.49;99360.00;5080026;28;20043;-68
2021/10/18 09:29:09;;;;;;;49.67;28.67;;;;;;;8.88;77.19;99369.81;5089270;28;20039;-70
2021/10/18 09:31:37;;;;;;;29.48;16.75;;;;;;;8.82;77.54;99379.06;5095820;28;20043;-69
2021/10/18 09:34:13;;;;;;;29.52;19.52;;;;;;;8.77;76.89;99368.88;5087768;28;20032;-70
2021/10/18 09:36:40;;;;;;;29.60;17.83;;;;;;;8.84;77.24;99371.41;5091834;28;20095;-70
2021/10/18 09:39:32;;;;;;;26.05;14.85;;;;;;;8.86;76.99;99374.72;5084524;28;20396;-69
2021/10/18 09:42:09;;;;;;;32.05;17.92;;;;;;;8.89;77.40;99375.00;5086056;28;20123;-70
2021/10/18 10:52:41;;;;;;;22.85;13.68;;;;;;;8.80;79.05;99390.25;5089423;28;20050;-70
2021/10/18 10:55:19;;;;;;;22.13;13.50;;;;;;;8.87;78.88;99390.84;5094122;28;20031;-71
2021/10/18 10:57:45;;;;;;;36.95;25.88;;;;;;;8.90;78.64;99387.59;5085077;28;20433;-70
2021/10/18 11:00:34;;;;;;;30.38;18.80;;;;;;;8.88;78.86;99392.50;5090802;28;20080;-70
2021/10/18 11:03:30;;;;;;;26.47;15.20;;;;;;;8.83;79.42;99392.47;5082212;28;20024;-70
2021/10/18 11:06:03;;;;;;;28.33;14.40;;;;;;;8.79;78.89;99391.31;5079716;28;20283;-69
2021/10/18 11:08:48;;;;;;;27.85;14.43;;;;;;;8.80;79.26;99387.50;5086353;28;20030;-71
2021/10/18 11:11:18;;;;;;;23.55;16.08;;;;;;;8.79;79.09;99378.50;5082804;28;20047;-71
2021/10/18 11:13:44;;;;;;;27.73;17.52;;;;;;;8.79;78.91;99383.13;5088120;28;20513;-69
2021/10/18 11:16:10;;;;;;;33.63;18.00;;;;;;;8.81;79.61;99391.88;5099751;28;20586;-71
2021/10/18 11:18:35;;;;;;;29.45;17.13;;;;;;;8.77;79.26;99396.22;5087778;28;20107;-68
2021/10/18 11:21:17;;;;;;;30.60;16.95;;;;;;;8.77;79.55;99396.22;5102831;28;20034;-70
2021/10/18 11:23:55;;;;;;;24.73;13.68;;;;;;;8.80;79.59;99390.25;5102428;28;20083;-73
2021/10/18 11:26:20;;;;;;;20.88;12.98;;;;;;;8.82;79.48;99401.75;5103430;28;20044;-70
2021/10/18 11:28:46;;;;;;;24.33;16.23;;;;;;;8.82;79.78;99392.72;5108154;28;20039;-74
2021/10/18 11:31:11;;;;;;;27.42;16.83;;;;;;;8.81;78.97;99391.09;5089109;28;20480;-71
2021/10/18 11:33:37;;;;;;;37.38;21.98;;;;;;;8.80;79.66;99398.44;5092944;28;20024;-69
2021/10/18 11:36:16;;;;;;;138.90;47.55;;;;;;;8.83;79.79;99392.47;5087514;28;20036;-71
2021/10/18 11:38:44;;;;;;;27.13;15.18;;;;;;;8.83;78.53;99397.13;5107538;28;20067;-70
2021/10/18 11:41:10;;;;;;;21.88;15.32;;;;;;;8.82;78.76;99398.19;5101543;28;20476;-77
2021/10/18 11:43:35;;;;;;;22.67;14.13;;;;;;;8.80;78.95;99401.19;5082183;28;20023;-69
2021/10/18 11:46:01;;;;;;;22.42;12.25;;;;;;;8.78;78.87;99398.72;5094556;28;20023;-70
2021/10/18 11:48:29;;;;;;;20.95;13.05;;;;;;;8.79;79.31;99396.78;5085549;28;20445;-70
2021/10/18 11:50:58;;;;;;;27.52;15.90;;;;;;;8.79;79.59;99396.78;5086278;28;20031;-69
2021/10/18 11:53:44;;;;;;;27.43;15.93;;;;;;;8.82;79.34;99395.47;5099363;28;20364;-68
2021/10/18 11:56:18;;;;;;;37.38;18.92;;;;;;;8.85;78.98;99398.50;5088702;28;20286;-70
2021/10/18 11:58:44;;;;;;;28.35;15.57;;;;;;;8.89;79.04;99396.88;5071648;28;20055;-70
2021/10/18 12:01:11;;;;;;;24.83;14.98;;;;;;;8.94;78.97;99391.47;5098557;28;20107;-69
2021/10/18 12:03:37;;;;;;;26.10;15.75;;;;;;;9.04;80.01;99392.63;5109233;28;20027;-69
2021/10/18 12:06:08;;;;;;;36.35;20.75;;;;;;;9.10;78.80;99386.09;5099642;28;20023;-69
2021/10/18 12:08:35;;;;;;;27.63;16.73;;;;;;;9.18;79.06;99382.84;5094847;28;20558;-69
2021/10/18 12:11:06;;;;;;;22.40;13.57;;;;;;;9.28;79.16;99394.94;5103475;28;20028;-70
2021/10/18 12:13:37;;;;;;;35.35;20.25;;;;;;;9.33;78.84;99392.25;5074006;28;20024;-71
2021/10/18 12:16:03;;;;;;;27.27;16.27;;;;;;;9.37;78.60;99390.63;5081819;28;20055;-69
2021/10/18 12:18:32;;;;;;;22.90;11.93;;;;;;;9.43;78.37;99392.31;5103588;28;20066;-69
2021/10/18 12:21:27;;;;;;;31.40;19.60;;;;;;;9.58;78.97;99390.75;5099904;28;20444;-69
2021/10/18 12:23:58;;;;;;;105.32;41.40;;;;;;;9.73;78.46;99390.00;5083902;28;20523;-70
2021/10/18 12:26:42;;;;;;;39.35;20.60;;;;;;;9.90;78.19;99395.25;5088697;28;20044;-70
2021/10/18 12:29:12;;;;;;;24.08;15.70;;;;;;;9.96;78.38;99386.78;5091431;28;20099;-67
2021/10/18 12:31:54;;;;;;;27.13;15.25;;;;;;;10.01;77.44;99385.97;5094506;28;20029;-70
2021/10/18 12:34:22;;;;;;;24.58;14.18;;;;;;;10.06;78.14;99388.72;5096311;28;20384;-70
2021/10/18 12:37:09;;;;;;;31.30;14.18;;;;;;;10.17;77.92;99386.84;5084193;28;20028;-70